KRRL/RRL METAR and TAF weather

Enter ICAO airport designator
Station Type Date Time Source
KRRL METAR 2021/03/08 15:55 UTC NOAA

KRRL 081555Z AUTO 32008KT 10SM SCT020 06/01 A3017 RMK AO2 T00550007 TSNO


Station Type Date Time Source
KRRL Decoded METAR 2021/03/08 15:55 UTC NOAA

Merrill, Merrill Municipal Airport, WI, United States (KRRL) 45-11N 089-42W
Mar 08, 2021 - 10:55 AM EST / 2021.03.08 1555 UTC
Wind: from the NW (320 degrees) at 9 MPH (8 KT):0
Visibility: 10 mile(s):0
Sky conditions: partly cloudy
Temperature: 41.9 F (5.5 C)
Dew Point: 33.3 F (0.7 C)
Relative Humidity: 71%
Pressure (altimeter): 30.17 in. Hg (1021 hPa)
ob: KRRL 081555Z AUTO 32008KT 10SM SCT020 06/01 A3017 RMK AO2 T00550007 TSNO
cycle: 16

Station Type Date Time Source
KRRL TAF UTC NOAA

Error!

Example: see airport list